Terminal Aerodrome Forecast
Issued by NWS

Home | Current Version | Previous Version | Graphics & Text | Print | Product List | Glossary On
Versions: 1 2 3 4 5 6 7 8 9 10 11 12
000
FTUS43 KIWX 312300
TAFSBN
TAF
KSBN 312320Z 0100/0124 03008KT P6SM OVC025
     FM010900 04006KT P6SM BKN035
     FM011500 03010KT P6SM SCT040=

USA.gov is the U.S. government's official web portal to all federal, state and local government web resources and services.